This site, now in its 22nd season, is a labour of love and fun from one of Ottawa's most avid time trialists and number crunchers. It adheres to and is permitted by the laws of Canada, promotes the objectives of every bicycle club whose results are shown, and is donated free of charge by myself for your enjoyment and usage. If you would like results from series you ride in to be shown here, give me (celia@drmath.ca) a shout!
NOTE that this site had to be quickly moved to a new server with a new version of Perl. Unfortunately the way of interacting with the web form has changed, so I'll have to do some reprogramming to get the buttons and search boxes working. Meanwhile the links work fine and you can always add query specifications into the URL! :-)


Index Page
ATT OTT WTT AATT CFCTT VVVTT
Help resultformat:
Case-sensitive

OBC Open TT Series - 2012-May-31 - 15km (Rockliffe Pkwy) (EvtFactor = 0.9155)

Ottawa Weather (18:00): Mostly Cloudy. Temperature: 17°C, Humidity: 39%, Dew Point: 3°C, Wind: WNW 15km/h, Pressure: 101.5kPa, Visibility: 10km.
Ottawa Weather (19:00): Mostly Cloudy. Temperature: 17°C, Humidity: 40%, Dew Point: 3°C, Wind: WNW 18km/h, Pressure: 101.5kPa, Visibility: 10km.
Ottawa Weather (20:00): Mostly Cloudy. Temperature: 16°C, Humidity: 41%, Dew Point: 3°C, Wind: NW 14km/h, Pressure: 101.5kPa, Visibility: 10km.

This was a good TT night for most with 42 improving upon their 2012 OTT previous best and 13 improving upon their previous 15km database best. More might have done either were it not for an accident in which one of the time trialists collided with a slower moving cyclist on the course. A few time trialists stopped to lend assistance and the arrival of several emergency vehicles on the course slowed the passage for some of the faster time trialists. Riders - Keep your heads up - It's safer and even more aeroynamic - It's hard to imagine any position more beautifully and functionally aerodynamic than this one of Aaron Fillion at the Ontario Cup Time Trial on 2010-Jul-10. Aaron won that 38km race in 46:20 (49.2km/h), and he certainly could see what he was passing on the route!

These results (with one further correction) were posted on the OBC site circa 23:30 on 2012-May-31 and are available here for your added pleasure and analysis.

(Lest complaints about me just lazily sucking in the results surface, I wish to make it perfectly clear that I would gladly do the data entry, getting the results up within a few of hours of the event, as history shows that I did for the WTT series for the decade beginning in 1998, and for the OTT series from 1999-2002 and again in 2006. The OBC Board however, not only won't let me volunteer here, but strangely enough they actually expelled me from the OBC for donating this time trial web site to you !)




 
 

BESTS?
 
1 Radford, Iain --- 20:12 44.554 1/75 U40M 1/9 0.9926
2 Danner, Dale OBC 20:16 44.408 2/75 U50M 1/16  
3 Michel, Alexandre  TTC 20:25 44.082 3/75 U40M 2/9 0.9566
4 Reid, Chris  RWR 20:46 43.339 4/75 U30M 1/6 1.2135
5 Bergeron, Philippe  OBC/FAE 20:47 43.304 5/75 U30M 2/6 1.1435
Katz, Joel  OBC/RWR 20:47 43.304 5/75 U60M 1/16 1.0365
7 Sudac, Rick  OBC/RWR 20:49 43.235 7/75 U70M 1/6 0.9366
8 De Haitre, Vincent OBC 20:54 43.062 8/75 U19M 1/2 0.9976
9 Budgell, Glen  OBC 20:56 42.994 9/75 U60M 2/16 1.0241
10 Di Silvestro, Matthew EUR 20:57 42.959 10/75 U40M 3/9 1.0362
11 Mullington, Chris WQW 21:06 42.654 11/75 U60M 3/16 1.0928
12 Lister, Adam OBC 21:16 42.320 12/75 U30M 3/6  
Sugden, David OBC/RDO 21:16 42.320 12/75 U50M 2/16 1.0285
14 Till, Michael --- 21:34 41.731 14/75 U60M 4/16 1.1789
15 Cameron, Allen  OBC/RWR 21:52 41.159 15/75 U60M 5/16 1.0231
16 Lacasse, Jeremie  OBC 21:59 40.940 16/75 U17M 1/2 1.0392
17 Moerman, Bram  OBC 22:05 40.755 17/75 U70M 2/6 1.0624
18 Posthuma, Hans  OBC 22:10 40.602 18/75 U60M 6/16 1.0787
19 Knowles, Kelly  OBC 22:12 40.541 19/75 U50F 1/5 1.0251
20 Robitaille, Brian  OBC 22:16 40.419 20/75 U50M 3/16 0.9910
21 Mullin, Phil --- 22:20 40.299 21/75 U40M 4/9 1.1875
22 Bonhomme, Ariane & Xie, Bailin OBC 22:21 40.268 22/75 TTT 1/1  
23 Hicks, Bob  OBC 22:25 40.149 23/75 U70M 3/6 1.2738
24 Konov, Sergei OBC 22:28 40.059 24/75 U40M 5/9 1.0314
25 Voyer, Christian DMD 22:30 40.000 25/75 U50M 4/16 0.9779
26 Hoover, Doug --- 22:40 39.706 26/75 U60M 7/16  
27 Dorego, Jean-Louis OBC 22:42 39.648 27/75 U70M 4/6 0.9978
Pihlainen, Matti FC 22:42 39.648 27/75 U30M 4/6 1.9343
29 Angeles, Robyn  IND 22:44 39.589 29/75 U50F 2/5 1.1378
30 Blais, Bob --- 22:45 39.560 30/75 U60M 8/16 1.0176
31 Larson, Eric RWR 22:48 39.474 31/75 U50M 5/16 0.9935
Parkinson, Scott OBC 22:48 39.474 31/75 U50M 5/16 1.0834
33 Grace, Darrin  EUR 22:51 39.387 33/75 U50M 7/16 0.9761
34 Deschamps, Martin WQW 23:01 39.102 34/75 U40M 6/9 1.0848
35 Schattmann, Peter OBC 23:06 38.961 35/75 U60M 9/16 1.2250
36 Manjikian, Sevak OBC 23:23 38.489 36/75 U50M 8/16 0.9915
37 Drouin, Marcel OBC 23:36 38.136 37/75 U50M 9/16 0.9686
38 Coudé, Martin --- 23:43 37.948 38/75 U30M 5/6 0.9790
39 Laplante, Simon OBC 23:44 37.921 39/75 U30M 6/6  
40 Rivoche, Michael WQW 23:51 37.736 40/75 U60M 10/16 1.0042
41 Deavy, Carol  OBC 23:59 37.526 41/75 U50F 3/5 1.0444
42 Burge, Larry  OBC 24:02 37.448 42/75 U50M 10/16 1.0188
43 Déry, Nicolas  OBC 24:07 37.319 43/75 U40M 7/9 1.1455
44 Pavelich, John OBC 24:11 37.216 44/75 U60M 11/16 1.0612
45 McKean, Kelly OBC 24:14 37.139 45/75 U40F 1/3  
46 Joinette, Vincent --- 24:22 36.936 46/75 U19M 2/2 0.8762
47 Marleau, Dianne  OBC 24:32 36.685 47/75 U60F 1/3 1.0519
48 Meyer, Lisa  OBC 24:35 36.610 48/75 U60F 2/3 1.0143
49 Ingham, Alison  OBC/RWR 24:37 36.561 49/75 U50F 4/5 0.9462
50 Imbrogno, Giorgio  OBC 24:39 36.511 50/75 U70M 5/6 1.1092
51 Balint, John OBC 24:47 36.315 51/75 U70M 6/6 1.0979
52 Kramer, Mark OBC 24:54 36.145 52/75 U40M 8/9 1.0121
53 Wilson, Ali --- 24:58 36.048 53/75 U30F 1/1 1.2648
54 Burdett, Avery  OBC 24:59 36.024 54/75 U80M 1/1 0.9014
King, Dustin --- 24:59 36.024 54/75 U17M 2/2 1.1556
56 Scott, Sean OBC 25:24 35.433 56/75 U50M 11/16 1.0399
57 Hall, David  OBC 25:29 35.317 57/75 U60M 12/16 0.9518
58 Gilchrist, Ryan  OBC 25:57 34.682 58/75 U50M 12/16  
59 Campbell, Keltie OBC 26:04 34.527 59/75 U17F 1/2  
60 Janusauskas, Vytas  OBC 26:05 34.505 60/75 U60M 13/16 1.0019
61 Hauschildt, Gunter OBC 26:22 34.134 61/75 U50M 13/16 0.9552
62 Easton, Glenn OBC 26:26 34.048 62/75 U60M 14/16 1.0896
63 Douglas, Mark  OBC 26:29 33.984 63/75 U60M 15/16 1.0894
McInnis, Celia  ABC/CYF 26:29 33.984 63/75 U60F 3/3 1.0325
65 Gorman, Janine OBC 26:35 33.856 65/75 U40F 2/3 1.3759
66 Cooper, Dave --- 26:54 33.457 66/75 U50M 14/16 1.0357
67 Burton, Myriam  OBC 27:37 32.589 67/75 U17F 2/2 0.9345
68 Johnson, Laura  OBC 27:58 32.181 68/75 U40F 3/3 1.5216
69 Ajersch, Mary  OBC 28:16 31.840 69/75 U80F 1/1  
70 Crowe, Sean OBC 29:14 30.787 70/75 U50M 15/16  
71 LeBrun, Robert OBC 33:25 26.933 71/75 U40M 9/9 0.9704
72 Austen, Ian  OBC  DNF   72/75 U60M 16/16  
Campbell, Janice  OBC  DNF   72/75 U50F 5/5  
Portelance, Marianne OBC  DNF   72/75 U19F 1/1  
Scantland, Eric OBC  DNF   72/75 U50M 16/16  
 
Average Speed of all of the above 71 finishes (1065km in 28:05:42):37.907
>>>Average of the Average Speeds for these 71 finishes38.268<<<
 

The number of data records shown above is 75
The server processing of your query took: 0 wallclock secs ( 0.10 usr + 0.01 sys = 0.11 CPU)

Thanks to our Helpers: Sarah Aston, Michel Bernier, Leona Gray, Alex McKnight, Stephanie Rees, Peter Tregunno.

     


Apr 6 (Good Friday) Apr 16 (10km) Apr 23 (10km) (Canceled - Cold Drizzle) Apr 30 (10km)
May 1 (10km) May 3 May 7 (10km) May 8 (10km) May 10 May 14 (10km) May 15 May 15 (10km) May 17 May 22 May 22 (10km) May 24 May 28 (10km) May 29 May 29 (10km)
  May 31  
Jun 3 (40km) Jun 4 (10km) Jun 5 Jun 5 Jun 7 Jun 11 (10km) Jun 12 Jun 12 Jun 14 Jun 18 (10km) Jun 19 Jun 19 Jun 21 Jun 25 (10km) Jun 26 Jun 26 Jun 28
Jul 2 (10km) Jul 3 Jul 3 Jul 5 Jul 8 (40km) Jul 9 Jul 10 Jul 10 Jul 12 Jul 16 Jul 17 Jul 17 Jul 19 Jul 22 (40km) Jul 23 (Cancelled - Thunderstorm) Jul 24 Jul 24 Jul 26 Jul 30 Jul 31 Jul 31
Aug 2 Aug 5 (40km) Aug 6 Aug 7 Aug 7 Aug 9 Aug 12 (40km) Aug 13 Aug 14 Aug 14 Aug 16 Aug 20 Aug 21 Aug 21 Aug 23 Aug 28 Aug 28 (Invitational) Aug 30
Sep 2 (40km) Sep 4 Sep 6 Sep 9 (40km) Sep 11 Sep 13 Sep 18 Sep 25

OTT Rankings
3 Best Speeds     3 Best Speeds by category
WTT Rankings for All Participants
4 Best Speeds (≥4 WTT, ≤1 10km)     4 Best Speeds (≥4 WTT, ≤1 10km) by category
OTT Best Three 15km Rankings
Overall     by category     age-Hcap Female   age-Hcap Male
[OWA]TT BAR Ranking
Overall     by category     Rider "Consistency-Graph"
ABC BAR Ranking
Overall     by category     Rider "Consistency-Graph"
Other years
TT Calculator All TT People All TT events
ABC Home VVV Home
CKAP GOLD MEDAL
Other Links

Please send your comments and suggestions to: Celia McInnis
Copyright © 1998-2021 Celia McInnis. All rights reserved. Links are welcomed.